createdAt,value
2018-01-27T00:02:02.191Z,100987.88
2018-01-27T00:04:30.589Z,100986.83
2018-01-27T00:06:58.988Z,100989.34
2018-01-27T00:09:27.466Z,100992.90
2018-01-27T00:11:55.850Z,100995.94
2018-01-27T00:14:24.272Z,101001.76
2018-01-27T00:16:52.708Z,101001.76
2018-01-27T00:19:21.116Z,100996.87
2018-01-27T00:21:49.519Z,101003.82
2018-01-27T00:24:17.969Z,101004.62
2018-01-27T00:26:46.380Z,101002.84
2018-01-27T00:29:14.774Z,101004.80
2018-01-27T00:31:43.202Z,101008.22
2018-01-27T00:34:11.612Z,101005.05
2018-01-27T00:36:40.025Z,101006.30
2018-01-27T00:39:08.718Z,101008.05
2018-01-27T00:41:37.138Z,101011.25
2018-01-27T00:44:05.572Z,101011.49
2018-01-27T00:46:34.010Z,101014.20
2018-01-27T00:49:02.423Z,101019.44
2018-01-27T00:51:30.817Z,101023.06
2018-01-27T00:53:59.259Z,101018.36
2018-01-27T00:56:27.672Z,101016.27
2018-01-27T00:58:56.113Z,101024.13
2018-01-27T01:01:24.554Z,101025.09
2018-01-27T01:03:52.978Z,101027.33
2018-01-27T01:06:21.379Z,101032.46
2018-01-27T01:08:49.809Z,101029.98
2018-01-27T01:11:18.221Z,101032.25
2018-01-27T01:13:46.658Z,101035.28
2018-01-27T01:16:15.121Z,101033.15
2018-01-27T01:18:43.524Z,101049.75
2018-01-27T01:21:11.914Z,101058.80
2018-01-27T01:23:40.368Z,101054.48
2018-01-27T01:26:08.756Z,101056.51
2018-01-27T01:28:37.146Z,101056.05
2018-01-27T01:31:05.596Z,101062.62
2018-01-27T01:33:34.013Z,101056.77
2018-01-27T01:36:02.405Z,101062.11
2018-01-27T01:38:30.864Z,101060.53
2018-01-27T01:40:59.268Z,101064.68
2018-01-27T01:43:33.222Z,101071.86
2018-01-27T01:46:01.644Z,101072.62
2018-01-27T01:48:30.063Z,101069.98
2018-01-27T01:50:58.497Z,101076.89
2018-01-27T01:53:26.909Z,101076.44
2018-01-27T01:55:55.329Z,101079.38
2018-01-27T01:58:23.782Z,101079.42
2018-01-27T02:00:52.200Z,101083.41
2018-01-27T02:03:20.598Z,101078.63
2018-01-27T02:05:49.057Z,101074.71
2018-01-27T02:08:17.449Z,101076.88
2018-01-27T02:10:45.838Z,101078.72
2018-01-27T02:13:14.326Z,101081.23
2018-01-27T02:15:42.769Z,101080.20
2018-01-27T02:18:11.188Z,101082.42
2018-01-27T02:20:39.680Z,101084.11
2018-01-27T02:23:08.085Z,101087.77
2018-01-27T02:25:36.480Z,101087.61
2018-01-27T02:28:04.975Z,101091.08
2018-01-27T02:30:33.389Z,101094.21
2018-01-27T02:33:01.802Z,101095.92
2018-01-27T02:35:30.251Z,101092.69
2018-01-27T02:37:58.651Z,101099.28
2018-01-27T02:40:27.045Z,101098.92
2018-01-27T02:42:55.497Z,101100.12
2018-01-27T02:45:23.935Z,101098.58
2018-01-27T02:47:52.325Z,101099.83
2018-01-27T02:50:20.763Z,101100.12
2018-01-27T02:52:49.166Z,101095.40
2018-01-27T02:55:17.560Z,101110.63
2018-01-27T02:57:46.010Z,101117.73
2018-01-27T03:00:14.444Z,101118.24
2018-01-27T03:02:42.847Z,101119.25
2018-01-27T03:05:11.293Z,101115.89
2018-01-27T03:07:39.701Z,101114.78
2018-01-27T03:10:08.095Z,101113.14
2018-01-27T03:12:36.540Z,101116.84
2018-01-27T03:15:04.973Z,101115.52
2018-01-27T03:17:33.373Z,101123.83
2018-01-27T03:20:02.112Z,101120.47
2018-01-27T03:22:30.510Z,101124.52
2018-01-27T03:24:58.937Z,101119.25
2018-01-27T03:27:27.403Z,101121.87
2018-01-27T03:29:55.880Z,101123.81
2018-01-27T03:32:24.262Z,101124.69
2018-01-27T03:34:52.708Z,101134.77
2018-01-27T03:37:21.098Z,101137.00
2018-01-27T03:39:49.519Z,101137.33
2018-01-27T03:42:17.969Z,101130.80
2018-01-27T03:44:46.365Z,101134.61
2018-01-27T03:47:14.785Z,101131.15
2018-01-27T03:49:43.245Z,101130.86
2018-01-27T03:52:11.669Z,101137.33
2018-01-27T03:54:40.081Z,101132.61
2018-01-27T03:57:08.544Z,101132.55
2018-01-27T03:59:36.935Z,101138.23
2018-01-27T04:02:05.354Z,101143.37
2018-01-27T04:04:33.790Z,101142.11
2018-01-27T04:07:02.195Z,101141.79
2018-01-27T04:09:30.601Z,101141.87
2018-01-27T04:11:59.037Z,101140.61
2018-01-27T04:14:27.430Z,101150.34
2018-01-27T04:16:55.824Z,101150.88
2018-01-27T04:19:24.250Z,101157.41
2018-01-27T04:21:52.657Z,101162.33
2018-01-27T04:24:21.068Z,101154.34
2018-01-27T04:26:49.516Z,101165.66
2018-01-27T04:29:17.936Z,101172.57
2018-01-27T04:31:46.352Z,101173.52
2018-01-27T04:34:15.124Z,101173.84
2018-01-27T04:36:43.569Z,101179.86
2018-01-27T04:39:11.984Z,101182.36
2018-01-27T04:41:40.503Z,101188.17
2018-01-27T04:44:08.949Z,101192.73
2018-01-27T04:46:37.392Z,101196.22
2018-01-27T04:49:05.845Z,101198.38
2018-01-27T04:51:34.265Z,101199.84
2018-01-27T04:54:02.662Z,101200.73
2018-01-27T04:56:31.109Z,101198.83
2018-01-27T04:58:59.538Z,101200.44
2018-01-27T05:01:27.929Z,101202.51
2018-01-27T05:03:56.390Z,101205.19
2018-01-27T05:06:24.796Z,101208.03
2018-01-27T05:08:53.208Z,101209.70
2018-01-27T05:11:21.896Z,101209.13
2018-01-27T05:13:50.336Z,101214.02
2018-01-27T05:16:18.716Z,101214.72
2018-01-27T05:18:47.189Z,101219.72
2018-01-27T05:21:15.601Z,101222.89
2018-01-27T05:23:43.994Z,101233.94
2018-01-27T05:26:12.438Z,101237.80
2018-01-27T05:28:40.825Z,101244.00
2018-01-27T05:31:09.213Z,101250.05
2018-01-27T05:33:37.660Z,101250.55
2018-01-27T05:36:06.074Z,101249.02
2018-01-27T05:38:34.481Z,101256.45
2018-01-27T05:41:02.920Z,101250.52
2018-01-27T05:43:31.329Z,101248.92
2018-01-27T05:45:59.729Z,101255.13
2018-01-27T05:48:28.180Z,101258.34
2018-01-27T05:50:56.593Z,101271.32
2018-01-27T05:53:24.981Z,101274.23
2018-01-27T05:55:54.366Z,101274.77
2018-01-27T05:58:22.806Z,101279.83
2018-01-27T06:00:51.198Z,101279.27
2018-01-27T06:03:19.641Z,101276.19
2018-01-27T06:05:48.045Z,101283.30
2018-01-27T06:08:16.472Z,101287.81
2018-01-27T06:10:44.929Z,101297.20
2018-01-27T06:13:13.352Z,101298.53
2018-01-27T06:15:41.786Z,101305.64
2018-01-27T06:18:10.245Z,101307.47
2018-01-27T06:20:38.642Z,101307.38
2018-01-27T06:23:07.064Z,101307.86
2018-01-27T06:25:35.528Z,101312.26
2018-01-27T06:28:03.923Z,101315.33
2018-01-27T06:30:32.373Z,101316.56
2018-01-27T06:33:01.338Z,101316.62
2018-01-27T06:35:29.794Z,101326.20
2018-01-27T06:37:58.186Z,101327.52
2018-01-27T06:40:26.633Z,101326.92
2018-01-27T06:42:55.031Z,101338.69
2018-01-27T06:45:23.422Z,101343.53
2018-01-27T06:47:51.881Z,101352.44
2018-01-27T06:50:20.292Z,101346.58
2018-01-27T06:52:48.754Z,101351.39
2018-01-27T06:55:17.192Z,101351.27
2018-01-27T06:57:45.613Z,101356.81
2018-01-27T07:00:14.040Z,101354.88
2018-01-27T07:02:42.494Z,101355.34
2018-01-27T07:05:10.890Z,101359.13
2018-01-27T07:07:39.301Z,101364.94
2018-01-27T07:10:07.758Z,101369.81
2018-01-27T07:12:36.168Z,101375.05
2018-01-27T07:15:04.588Z,101376.67
2018-01-27T07:17:33.054Z,101375.97
2018-01-27T07:20:01.462Z,101373.18
2018-01-27T07:22:29.865Z,101377.69
2018-01-27T07:24:58.308Z,101381.95
2018-01-27T07:27:26.754Z,101383.67
2018-01-27T07:29:55.170Z,101381.72
2018-01-27T07:32:23.621Z,101381.05
2018-01-27T07:34:52.005Z,101386.70
2018-01-27T07:37:20.422Z,101380.94
2018-01-27T07:39:48.888Z,101390.38
2018-01-27T07:42:17.288Z,101393.25
2018-01-27T07:44:45.678Z,101387.83
2018-01-27T07:47:14.105Z,101389.91
2018-01-27T07:49:42.493Z,101390.11
2018-01-27T07:52:10.906Z,101383.06
2018-01-27T07:54:39.337Z,101378.16
2018-01-27T07:57:07.751Z,101388.65
2018-01-27T07:59:36.176Z,101384.80
2018-01-27T08:02:04.628Z,101387.27
2018-01-27T08:04:33.027Z,101389.80
2018-01-27T08:07:01.442Z,101388.78
2018-01-27T08:09:29.880Z,101386.13
2018-01-27T08:11:58.285Z,101391.09
2018-01-27T08:14:26.701Z,101392.33
2018-01-27T08:16:55.168Z,101391.30
2018-01-27T08:19:23.604Z,101395.19
2018-01-27T08:21:52.391Z,101390.20
2018-01-27T08:24:20.846Z,101390.64
2018-01-27T08:26:49.258Z,101388.57
2018-01-27T08:29:17.681Z,101386.55
2018-01-27T08:31:46.168Z,101384.42
2018-01-27T08:34:14.561Z,101386.44
2018-01-27T08:36:42.962Z,101383.58
2018-01-27T08:39:11.410Z,101386.44
2018-01-27T08:41:39.793Z,101383.37
2018-01-27T08:44:08.197Z,101397.24
2018-01-27T08:46:36.657Z,101398.39
2018-01-27T08:49:05.069Z,101410.37
2018-01-27T08:51:33.463Z,101404.59
2018-01-27T08:54:01.969Z,101409.08
2018-01-27T08:56:30.369Z,101408.42
2018-01-27T08:58:58.782Z,101406.19
2018-01-27T09:01:27.214Z,101405.88
2018-01-27T09:03:55.620Z,101399.34
2018-01-27T09:06:24.026Z,101408.32
2018-01-27T09:08:52.530Z,101411.27
2018-01-27T09:11:20.934Z,101415.67
2018-01-27T09:13:49.318Z,101408.56
2018-01-27T09:16:17.789Z,101404.34
2018-01-27T09:18:46.212Z,101414.55
2018-01-27T09:21:14.620Z,101421.55
2018-01-27T09:23:43.051Z,101419.14
2018-01-27T09:26:11.438Z,101416.51
2018-01-27T09:28:39.937Z,101423.02
2018-01-27T09:31:08.387Z,101424.39
2018-01-27T09:33:36.800Z,101430.11
2018-01-27T09:36:05.224Z,101439.28
2018-01-27T09:38:33.704Z,101442.89
2018-01-27T09:41:02.116Z,101441.50
2018-01-27T09:43:30.557Z,101440.70
2018-01-27T09:45:59.057Z,101445.20
2018-01-27T09:48:27.473Z,101455.40
2018-01-27T09:50:55.897Z,101461.64
2018-01-27T09:53:24.370Z,101466.39
2018-01-27T09:55:52.772Z,101464.37
2018-01-27T09:58:21.206Z,101460.21
2018-01-27T10:00:49.648Z,101464.09
2018-01-27T10:03:18.069Z,101461.45
2018-01-27T10:05:46.509Z,101464.45
2018-01-27T10:08:14.960Z,101460.19
2018-01-27T10:10:43.358Z,101447.95
2018-01-27T10:13:11.753Z,101449.38
2018-01-27T10:15:40.209Z,101457.81
2018-01-27T10:18:08.628Z,101466.28
2018-01-27T10:20:37.049Z,101469.67
2018-01-27T10:23:05.498Z,101469.41
2018-01-27T10:25:33.910Z,101475.59
2018-01-27T10:28:02.307Z,101472.58
2018-01-27T10:30:30.787Z,101480.58
2018-01-27T10:32:59.203Z,101474.67
2018-01-27T10:35:27.627Z,101472.06
2018-01-27T10:37:56.118Z,101463.01
2018-01-27T10:40:24.533Z,101466.59
2018-01-27T10:42:53.012Z,101464.98
2018-01-27T10:45:21.449Z,101463.85
2018-01-27T10:47:49.850Z,101459.63
2018-01-27T10:50:18.272Z,101446.68
2018-01-27T10:52:46.726Z,101452.28
2018-01-27T10:55:15.117Z,101448.77
2018-01-27T10:57:43.522Z,101445.44
2018-01-27T11:00:11.993Z,101441.66
2018-01-27T11:02:40.389Z,101439.19
2018-01-27T11:05:08.805Z,101434.20
2018-01-27T11:07:37.548Z,101437.16
2018-01-27T11:10:05.974Z,101433.91
2018-01-27T11:12:34.407Z,101437.90
2018-01-27T11:15:02.862Z,101437.77
2018-01-27T11:17:31.280Z,101441.75
2018-01-27T11:19:59.696Z,101439.03
2018-01-27T11:22:28.147Z,101436.83
2018-01-27T11:24:56.578Z,101429.38
2018-01-27T11:27:25.038Z,101433.75
2018-01-27T11:29:53.495Z,101440.09
2018-01-27T11:32:21.921Z,101437.83
2018-01-27T11:34:50.346Z,101431.52
2018-01-27T11:37:18.797Z,101435.53
2018-01-27T11:39:47.229Z,101437.48
2018-01-27T11:42:15.647Z,101432.33
2018-01-27T11:44:44.094Z,101432.29
2018-01-27T11:47:12.520Z,101430.77
2018-01-27T11:49:40.943Z,101428.88
2018-01-27T11:52:09.381Z,101429.19
2018-01-27T11:54:37.810Z,101420.42
2018-01-27T11:57:06.211Z,101413.40
2018-01-27T11:59:34.693Z,101412.27
2018-01-27T12:02:03.133Z,101413.56
2018-01-27T12:04:31.550Z,101414.69
2018-01-27T12:07:00.008Z,101412.34
2018-01-27T12:09:28.426Z,101405.12
2018-01-27T12:11:56.849Z,101399.57
2018-01-27T12:14:25.507Z,101407.01
2018-01-27T12:16:53.933Z,101408.42
2018-01-27T12:19:22.346Z,101404.53
2018-01-27T12:21:50.818Z,101398.41
2018-01-27T12:24:19.246Z,101396.13
2018-01-27T12:26:47.662Z,101396.96
2018-01-27T12:29:16.266Z,101403.09
2018-01-27T12:31:44.681Z,101409.11
2018-01-27T12:34:13.113Z,101396.31
2018-01-27T12:36:41.621Z,101402.39
2018-01-27T12:39:10.037Z,101399.58
2018-01-27T12:41:38.470Z,101394.52
2018-01-27T12:44:06.921Z,101393.98
2018-01-27T12:46:35.344Z,101396.84
2018-01-27T12:49:03.762Z,101396.42
2018-01-27T12:51:32.230Z,101398.52
2018-01-27T12:54:00.635Z,101404.27
2018-01-27T12:56:29.044Z,101397.13
2018-01-27T12:58:57.509Z,101393.14
2018-01-27T13:01:25.943Z,101390.90
2018-01-27T13:03:54.363Z,101395.89
2018-01-27T13:06:22.829Z,101401.56
2018-01-27T13:08:51.245Z,101397.11
2018-01-27T13:11:19.641Z,101395.36
2018-01-27T13:13:48.095Z,101387.59
2018-01-27T13:16:16.508Z,101391.05
2018-01-27T13:18:44.911Z,101391.16
2018-01-27T13:21:13.377Z,101396.69
2018-01-27T13:23:41.805Z,101396.44
2018-01-27T13:26:10.217Z,101393.95
2018-01-27T13:28:38.681Z,101389.03
2018-01-27T13:31:07.078Z,101391.95
2018-01-27T13:33:35.473Z,101384.92
2018-01-27T13:36:03.950Z,101381.26
2018-01-27T13:38:32.367Z,101377.05
2018-01-27T13:41:00.760Z,101373.20
2018-01-27T13:43:29.223Z,101363.41
2018-01-27T13:45:57.674Z,101365.22
2018-01-27T13:48:26.079Z,101366.55
2018-01-27T13:50:54.546Z,101359.08
2018-01-27T13:53:22.948Z,101357.59
2018-01-27T13:55:51.361Z,101352.76
2018-01-27T13:58:19.819Z,101356.10
2018-01-27T14:00:48.217Z,101363.03
2018-01-27T14:03:16.681Z,101360.84
2018-01-27T14:05:45.157Z,101361.69
2018-01-27T14:08:13.573Z,101354.64
2018-01-27T14:10:41.984Z,101343.16
2018-01-27T14:13:10.448Z,101338.78
2018-01-27T14:15:38.856Z,101344.38
2018-01-27T14:18:07.249Z,101345.16
2018-01-27T14:20:35.710Z,101340.08
2018-01-27T14:23:04.130Z,101336.23
2018-01-27T14:25:32.543Z,101338.94
2018-01-27T14:28:00.993Z,101345.06
2018-01-27T14:30:29.451Z,101346.36
2018-01-27T14:32:57.856Z,101333.69
2018-01-27T14:35:26.305Z,101343.95
2018-01-27T14:37:54.715Z,101344.18
2018-01-27T14:40:23.114Z,101349.91
2018-01-27T14:42:51.585Z,101362.87
2018-01-27T14:45:20.012Z,101364.59
2018-01-27T14:47:48.413Z,101373.95
2018-01-27T14:50:17.132Z,101369.39
2018-01-27T14:52:45.536Z,101369.14
2018-01-27T14:55:13.922Z,101374.78
2018-01-27T14:57:42.380Z,101373.59
2018-01-27T15:00:10.789Z,101378.28
2018-01-27T15:02:39.185Z,101381.38
2018-01-27T15:05:07.634Z,101389.55
2018-01-27T15:07:36.035Z,101383.85
2018-01-27T15:10:04.442Z,101388.56
2018-01-27T15:12:32.901Z,101386.25
2018-01-27T15:15:01.298Z,101387.76
2018-01-27T15:17:29.717Z,101390.18
2018-01-27T15:19:58.171Z,101385.81
2018-01-27T15:22:26.593Z,101389.72
2018-01-27T15:24:55.001Z,101377.62
2018-01-27T15:27:23.452Z,101360.72
2018-01-27T15:29:51.842Z,101346.67
2018-01-27T15:32:20.238Z,101341.19
2018-01-27T15:34:48.700Z,101337.20
2018-01-27T15:37:17.098Z,101335.41
2018-01-27T15:39:45.521Z,101329.42
2018-01-27T15:42:13.987Z,101324.75
2018-01-27T15:44:42.390Z,101322.72
2018-01-27T15:47:10.792Z,101308.46
2018-01-27T15:49:39.238Z,101307.15
2018-01-27T15:52:07.660Z,101310.69
2018-01-27T15:54:36.083Z,101304.16
2018-01-27T15:57:04.543Z,101301.84
2018-01-27T15:59:32.958Z,101304.08
2018-01-27T16:02:01.358Z,101301.67
2018-01-27T16:04:29.837Z,101312.30
2018-01-27T16:06:58.268Z,101305.72
2018-01-27T16:09:26.694Z,101297.33
2018-01-27T16:11:55.185Z,101301.59
2018-01-27T16:14:23.619Z,101291.48
2018-01-27T16:16:52.034Z,101288.62
2018-01-27T16:19:20.488Z,101290.97
2018-01-27T16:21:48.896Z,101288.62
2018-01-27T16:24:17.318Z,101283.71
2018-01-27T16:26:45.820Z,101288.98
2018-01-27T16:29:14.243Z,101288.31
2018-01-27T16:31:42.692Z,101287.63
2018-01-27T16:34:11.163Z,101294.11
2018-01-27T16:36:39.624Z,101293.58
2018-01-27T16:39:08.038Z,101293.70
2018-01-27T16:41:36.730Z,101306.14
2018-01-27T16:44:05.176Z,101297.69
2018-01-27T16:46:33.629Z,101301.69
2018-01-27T16:49:02.103Z,101309.67
2018-01-27T16:51:30.532Z,101308.34
2018-01-27T16:53:58.965Z,101300.42
2018-01-27T16:56:27.472Z,101296.64
2018-01-27T16:58:55.905Z,101286.38
2018-01-27T17:01:24.336Z,101284.25
2018-01-27T17:03:53.738Z,101286.68
2018-01-27T17:06:22.146Z,101284.31
2018-01-27T17:08:50.560Z,101292.78
2018-01-27T17:11:22.059Z,101297.20
2018-01-27T17:13:50.499Z,101307.45
2018-01-27T17:16:18.929Z,101306.96
2018-01-27T17:18:47.416Z,101280.89
2018-01-27T17:21:15.833Z,101278.52
2018-01-27T17:23:44.238Z,101291.00
2018-01-27T17:26:12.695Z,101303.89
2018-01-27T17:28:41.129Z,101299.48
2018-01-27T17:31:09.549Z,101291.21
2018-01-27T17:33:37.981Z,101269.56
2018-01-27T17:36:06.403Z,101258.57
2018-01-27T17:38:34.813Z,101257.80
2018-01-27T17:41:03.276Z,101250.00
2018-01-27T17:43:31.669Z,101247.41
2018-01-27T17:46:00.092Z,101241.45
2018-01-27T17:48:28.594Z,101236.16
2018-01-27T17:50:57.014Z,101240.37
2018-01-27T17:53:25.418Z,101235.10
2018-01-27T17:55:53.878Z,101231.41
2018-01-27T17:58:22.320Z,101236.95
2018-01-27T18:00:50.717Z,101232.55
2018-01-27T18:03:19.214Z,101215.05
2018-01-27T18:05:47.609Z,101214.25
2018-01-27T18:08:16.041Z,101227.73
2018-01-27T18:10:44.477Z,101221.84
2018-01-27T18:13:12.880Z,101215.09
2018-01-27T18:15:41.300Z,101211.83
2018-01-27T18:18:09.801Z,101196.96
2018-01-27T18:20:38.212Z,101186.59
2018-01-27T18:23:06.642Z,101177.05
2018-01-27T18:25:35.110Z,101160.56
2018-01-27T18:28:03.528Z,101149.97
2018-01-27T18:30:31.951Z,101138.40
2018-01-27T18:33:00.398Z,101132.00
2018-01-27T18:35:28.818Z,101140.98
2018-01-27T18:37:57.217Z,101146.29
2018-01-27T18:40:25.880Z,101149.55
2018-01-27T18:42:54.277Z,101153.37
2018-01-27T18:45:22.709Z,101161.28
2018-01-27T18:47:51.176Z,101142.64
2018-01-27T18:50:19.618Z,101149.81
2018-01-27T18:52:48.041Z,101168.03
2018-01-27T18:55:16.482Z,101180.02
2018-01-27T18:57:44.905Z,101174.56
2018-01-27T19:00:13.342Z,101166.81
2018-01-27T19:02:41.801Z,101162.16
2018-01-27T19:05:10.222Z,101180.16
2018-01-27T19:07:38.633Z,101179.61
2018-01-27T19:10:07.155Z,101178.45
2018-01-27T19:12:35.601Z,101177.19
2018-01-27T19:15:04.060Z,101181.45
2018-01-27T19:17:32.548Z,101168.33
2018-01-27T19:20:00.972Z,101157.70
2018-01-27T19:22:29.373Z,101152.63
2018-01-27T19:24:57.846Z,101139.77
2018-01-27T19:27:26.255Z,101139.22
2018-01-27T19:29:54.696Z,101146.94
2018-01-27T19:32:23.201Z,101152.40
2018-01-27T19:34:51.617Z,101148.65
2018-01-27T19:37:20.028Z,101140.67
2018-01-27T19:39:48.505Z,101145.19
2018-01-27T19:42:16.907Z,101145.45
2018-01-27T19:44:45.302Z,101136.17
2018-01-27T19:47:13.781Z,101122.22
2018-01-27T19:49:42.208Z,101100.11
2018-01-27T19:52:10.655Z,101076.73
2018-01-27T19:54:39.089Z,101068.11
2018-01-27T19:57:07.508Z,101061.05
2018-01-27T19:59:35.937Z,101077.83
2018-01-27T20:02:04.386Z,101057.09
2018-01-27T20:04:32.800Z,101071.53
2018-01-27T20:07:01.194Z,101070.31
2018-01-27T20:09:30.588Z,101079.25
2018-01-27T20:11:58.993Z,101081.73
2018-01-27T20:14:27.408Z,101078.77
2018-01-27T20:16:55.848Z,101070.21
2018-01-27T20:19:24.248Z,101039.72
2018-01-27T20:21:52.659Z,101023.95
2018-01-27T20:24:21.117Z,101021.58
2018-01-27T20:26:49.528Z,101003.55
2018-01-27T20:29:17.940Z,101009.10
2018-01-27T20:31:46.391Z,101007.95
2018-01-27T20:34:14.813Z,101001.58
2018-01-27T20:36:43.209Z,100992.23
2018-01-27T20:39:11.652Z,101001.65
2018-01-27T20:41:40.081Z,101029.97
2018-01-27T20:44:08.501Z,101033.03
2018-01-27T20:46:36.957Z,101038.11
2018-01-27T20:49:05.370Z,101033.50
2018-01-27T20:51:33.826Z,101051.19
2018-01-27T20:54:02.285Z,101049.64
2018-01-27T20:56:30.733Z,101052.11
2018-01-27T20:58:59.172Z,101042.89
2018-01-27T21:01:27.645Z,101038.75
2018-01-27T21:03:56.042Z,101021.86
2018-01-27T21:06:24.497Z,101012.34
2018-01-27T21:08:52.977Z,101002.89
2018-01-27T21:11:21.403Z,100993.53
2018-01-27T21:13:49.812Z,101002.02
2018-01-27T21:16:18.296Z,101003.34
2018-01-27T21:18:46.712Z,101005.69
2018-01-27T21:21:15.111Z,101011.02
2018-01-27T21:23:43.569Z,100994.66
2018-01-27T21:26:12.003Z,100989.52
2018-01-27T21:28:40.428Z,100998.95
2018-01-27T21:31:08.876Z,101005.23
2018-01-27T21:33:37.281Z,100996.47
2018-01-27T21:36:05.693Z,101003.10
2018-01-27T21:38:34.160Z,101006.52
2018-01-27T21:41:02.612Z,100989.94
2018-01-27T21:43:31.043Z,100985.16
2018-01-27T21:45:59.506Z,100992.07
2018-01-27T21:48:27.912Z,100999.13
2018-01-27T21:50:56.321Z,100987.75
2018-01-27T21:53:24.781Z,100982.37
2018-01-27T21:55:53.195Z,100965.27
2018-01-27T21:58:21.597Z,100972.31
2018-01-27T22:00:50.049Z,100973.15
2018-01-27T22:03:18.470Z,100971.30
2018-01-27T22:05:46.881Z,100958.73
2018-01-27T22:08:15.529Z,100964.28
2018-01-27T22:10:43.943Z,100967.15
2018-01-27T22:13:12.350Z,100952.17
2018-01-27T22:18:15.549Z,100966.45
2018-01-27T22:20:44.013Z,100962.58
2018-01-27T22:23:12.443Z,100945.99
2018-01-27T22:25:40.845Z,100931.41
2018-01-27T22:28:09.289Z,100933.59
2018-01-27T22:30:37.683Z,100935.97
2018-01-27T22:33:06.089Z,100935.33
2018-01-27T22:35:34.537Z,100936.94
2018-01-27T22:38:02.935Z,100939.36
2018-01-27T22:40:31.353Z,100938.20
2018-01-27T22:42:59.801Z,100936.38
2018-01-27T22:45:28.208Z,100934.44
2018-01-27T22:47:56.627Z,100937.02
2018-01-27T22:50:25.079Z,100921.48
2018-01-27T22:52:53.480Z,100938.47
2018-01-27T22:55:21.910Z,100924.52
2018-01-27T22:57:50.356Z,100922.16
2018-01-27T23:00:18.758Z,100925.63
2018-01-27T23:02:47.181Z,100923.47
2018-01-27T23:05:15.639Z,100918.07
2018-01-27T23:07:44.029Z,100918.76
2018-01-27T23:10:12.457Z,100928.27
2018-01-27T23:12:40.936Z,100919.88
2018-01-27T23:15:09.341Z,100911.44
2018-01-27T23:17:37.752Z,100905.29
2018-01-27T23:20:06.185Z,100895.09
2018-01-27T23:22:34.581Z,100904.27
2018-01-27T23:25:03.014Z,100899.08
2018-01-27T23:27:31.456Z,100892.72
2018-01-27T23:29:59.903Z,100870.80
2018-01-27T23:32:28.297Z,100864.16
2018-01-27T23:34:56.749Z,100852.41
2018-01-27T23:37:25.181Z,100855.86
2018-01-27T23:39:53.609Z,100855.41
2018-01-27T23:42:22.089Z,100864.47
2018-01-27T23:44:50.517Z,100868.99
2018-01-27T23:47:18.946Z,100883.90
2018-01-27T23:49:47.391Z,100880.26
2018-01-27T23:52:15.823Z,100866.81
2018-01-27T23:54:44.256Z,100867.24
2018-01-27T23:57:12.730Z,100883.28
2018-01-27T23:59:41.179Z,100869.81
